Mountain Village Airport

About
Name: Mountain Village Airport
Identifier:  MOU/PAMO
Serves:  Mountain Village, Alaska
Owner:  Alaska DOT&PF - Northern Region
Public/Private:  Public
Local Time:  18. Aug 04:48 AKDT
Description: Mountain Village Airport is a public-use airport located in Mountain Village, a city in the Kusilvak Census Area of the U.S. state of Alaska. The airport is owned by the State of Alaska Department of Transportation and Public Facilities - Northern Region.
Source: Wikipedia
Location
Mountain Village
  United States

Runways
Identifier Length (m/ft) Surface
2/20 3,500/3,500 Gravel
Flights per Day
4 flights
Distance: 24km (15mi)
Punctuality
82% (0 flights per day delayed)
Delay Average: 68 minutes
Current Weather
 13 C (Humidity: 87%)
  11kt (20km/h / 12mph) from 240°
18 knots Gusts

  Broken clouds at 1,500 feet (457 meter)
  Overcast at 2,100 feet (640 meter)
  16km (10 mi.)
 METAR PAMO 132102Z AUTO 24011G18KT 10SM BKN015 OVC021 13/11 A3005 RMK AO2 RAE20192025B2004E2025 SLP180 P0000 60008 T01280106 53006

Current Flights

Departures
Number Departure To Airline
 7H3453 19:10 +1167  St. Mary's Ravn Alaska
Arrivals
Number Arrival From Airline

Current Delays

Departures
N/A
Arrivals
N/A

Destinations

Top Destinations
Airport Flights
per week
Seats
per week
  Anchorage (ANC) 0 - 0 0

Airlines & Planes

Top Airlines
Airline Flights
per Day
Seats
per Day
Lynden Air Cargo 0 -
Top Plane Types
Model Flights Seats
Beech 1900D 0.0/day - 0